Terminal Aerodrome Forecast
Issued by NWS

Home | Current Version | Previous Version | Text Only | Print | Product List | Glossary Off
Versions: 1 2 3 4 5 6 7 8 9 10 11 12 13 14 15 16 17 18 19 20

000
FTUS43 KPAH 251303 AAA
TAFOWB
TAF AMD
KOWB 251303Z 2513/2612 33005KT 1 1/2SM BR SCT020
      TEMPO 2513/2514 1/2SM FG VV002
     FM251400 34006KT 4SM BR BKN015
     FM251430 35006KT 6SM BR BKN020
     FM251500 35007KT P6SM SCT030 BKN200
     FM260000 01004KT P6SM BKN150=

USA.gov is the U.S. government's official web portal to all federal, state and local government web resources and services.